Time;durP1;ratioP1;P1;durP2;ratioP2;P2;SDS_P1;SDS_P2;PMS_P1;PMS_P2;Temp;Humidity;BMP_temperature;BMP_pressure;BME280_temperature;BME280_humidity;BME280_pressure;Samples;Min_cycle;Max_cycle;Signal;HPM_P1;HPM_P2
2023/03/22 00:02:07;;;;;;;6.85;4.13;;;10.50;99.90;;;;;;4945286;29;20051;-72
2023/03/22 00:04:33;;;;;;;10.43;3.88;;;10.50;99.90;;;;;;4946035;29;20031;-72
2023/03/22 00:06:58;;;;;;;10.25;4.05;;;10.50;99.90;;;;;;4945580;29;20040;-73
2023/03/22 00:09:24;;;;;;;7.80;4.22;;;10.40;99.90;;;;;;4928960;29;20042;-72
2023/03/22 00:11:50;;;;;;;8.30;4.25;;;10.40;99.90;;;;;;4946042;29;20045;-72
2023/03/22 00:14:17;;;;;;;6.82;3.90;;;10.30;99.90;;;;;;4945354;29;20083;-72
2023/03/22 00:16:44;;;;;;;7.53;3.40;;;10.30;99.90;;;;;;4946060;29;20210;-73
2023/03/22 00:19:11;;;;;;;7.22;3.67;;;10.30;99.90;;;;;;4945309;29;20381;-73
2023/03/22 00:21:36;;;;;;;6.70;2.97;;;10.40;99.90;;;;;;4945722;29;20309;-72
2023/03/22 00:24:02;;;;;;;5.53;2.95;;;10.40;99.90;;;;;;4945308;29;20035;-73
2023/03/22 00:26:28;;;;;;;6.15;2.95;;;10.40;99.90;;;;;;4928777;29;20106;-70
2023/03/22 00:28:54;;;;;;;6.00;2.97;;;10.50;99.90;;;;;;4945103;29;20039;-73
2023/03/22 00:31:19;;;;;;;5.00;3.30;;;10.50;99.90;;;;;;4945624;29;20039;-72
2023/03/22 00:33:45;;;;;;;4.10;2.80;;;10.50;99.90;;;;;;4945770;29;20257;-72
2023/03/22 00:36:11;;;;;;;5.60;2.60;;;10.40;99.90;;;;;;4928174;29;20036;-71
2023/03/22 00:38:37;;;;;;;5.70;2.92;;;10.40;99.90;;;;;;4945615;29;20040;-72
2023/03/22 00:41:19;;;;;;;5.00;2.67;;;10.40;99.90;;;;;;4927779;29;20050;-73
2023/03/22 00:43:46;;;;;;;5.47;3.25;;;10.40;99.90;;;;;;4945419;29;20055;-72
2023/03/22 00:46:13;;;;;;;7.93;3.28;;;10.40;99.90;;;;;;4944964;29;20041;-72
2023/03/22 00:48:39;;;;;;;6.13;3.13;;;10.40;99.90;;;;;;4945321;29;20042;-73
2023/03/22 00:51:06;;;;;;;5.60;3.38;;;10.50;99.90;;;;;;4927712;29;20080;-72
2023/03/22 00:53:34;;;;;;;7.35;3.33;;;10.50;99.90;;;;;;4928296;29;20388;-72
2023/03/22 00:55:59;;;;;;;7.40;3.08;;;10.50;99.90;;;;;;4927588;29;20028;-74
2023/03/22 00:58:28;;;;;;;6.22;3.00;;;10.50;99.90;;;;;;4928129;29;20314;-74
2023/03/22 06:02:15;;;;;;;8.98;5.70;;;7.50;99.90;;;;;;5532220;23;20051;-72
2023/03/22 06:04:41;;;;;;;7.50;5.10;;;7.60;99.90;;;;;;4957914;28;20031;-72
2023/03/22 06:07:11;;;;;;;12.82;5.70;;;7.60;99.90;;;;;;4946474;28;20026;-72
2023/03/22 06:10:05;;;;;;;8.73;4.60;;;7.70;99.90;;;;;;4959146;28;20035;-73
2023/03/22 06:12:32;;;;;;;9.27;5.25;;;7.70;99.90;;;;;;4945821;29;20099;-72
2023/03/22 06:15:05;;;;;;;10.60;5.53;;;7.70;99.90;;;;;;4946859;29;20106;-72
2023/03/22 06:17:35;;;;;;;10.85;4.57;;;7.80;99.90;;;;;;4963135;28;20211;-73
2023/03/22 06:20:10;;;;;;;7.53;4.72;;;7.90;99.90;;;;;;4962463;28;20078;-73
2023/03/22 06:22:39;;;;;;;9.48;5.13;;;7.90;99.90;;;;;;4961866;28;20101;-72
2023/03/22 06:25:06;;;;;;;7.28;3.83;;;8.00;99.90;;;;;;4946621;29;20034;-73
2023/03/22 06:27:38;;;;;;;6.63;4.38;;;8.10;99.90;;;;;;4961977;28;20327;-73
2023/03/22 06:30:04;;;;;;;8.35;4.35;;;8.20;99.90;;;;;;4946504;29;20023;-72
2023/03/22 06:32:36;;;;;;;7.22;4.70;;;8.30;99.90;;;;;;4946002;29;20023;-73
2023/03/22 06:35:02;;;;;;;10.55;4.47;;;8.30;99.90;;;;;;4946259;29;20023;-73
2023/03/22 06:37:28;;;;;;;13.15;5.22;;;8.40;99.90;;;;;;4945901;29;20038;-72
2023/03/22 06:39:54;;;;;;;10.65;4.50;;;8.50;99.90;;;;;;4962199;28;20094;-74
2023/03/22 06:42:23;;;;;;;9.93;5.07;;;8.70;99.90;;;;;;4945855;29;20023;-72
2023/03/22 06:44:59;;;;;;;7.95;4.97;;;8.80;99.90;;;;;;4946365;29;20031;-71
2023/03/22 06:47:29;;;;;;;8.82;5.70;;;8.90;99.90;;;;;;4964751;28;20027;-72
2023/03/22 06:50:09;;;;;;;9.70;4.80;;;9.00;99.90;;;;;;4949687;28;20031;-72
2023/03/22 06:53:00;;;;;;;8.93;4.60;;;9.20;99.90;;;;;;4965591;28;20042;-72
2023/03/22 06:55:26;;;;;;;11.07;4.97;;;9.40;99.90;;;;;;4949145;29;20027;-72
2023/03/22 06:57:53;;;;;;;7.25;3.50;;;9.50;99.90;;;;;;4948876;29;20046;-72
2023/03/22 07:00:19;;;;;;;6.20;2.95;;;9.70;99.90;;;;;;4965874;28;20063;-71
2023/03/22 07:02:45;;;;;;;6.13;3.10;;;10.00;99.90;;;;;;4949088;29;20098;-73
2023/03/22 07:05:19;;;;;;;5.25;2.20;;;10.10;99.90;;;;;;4945136;29;20249;-72
2023/03/22 07:07:45;;;;;;;7.35;2.38;;;10.40;99.90;;;;;;4946017;29;20118;-71
2023/03/22 07:10:11;;;;;;;7.97;2.65;;;10.60;99.90;;;;;;4947299;29;20213;-71
2023/03/22 07:12:37;;;;;;;5.43;2.50;;;10.80;99.90;;;;;;4929952;29;20380;-71
2023/03/22 07:15:09;;;;;;;4.30;1.88;;;10.90;99.90;;;;;;4930225;29;20036;-74
2023/03/22 07:17:51;;;;;;;4.15;1.70;;;11.10;99.90;;;;;;4930295;29;20027;-71
2023/03/22 07:20:18;;;;;;;2.78;1.33;;;11.30;99.90;;;;;;4929846;29;20035;-70
2023/03/22 07:22:45;;;;;;;4.43;2.10;;;11.40;99.90;;;;;;4945904;29;20059;-71
2023/03/22 07:25:11;;;;;;;4.22;1.70;;;11.60;99.90;;;;;;4945793;29;20024;-75
2023/03/22 07:27:37;;;;;;;6.03;1.83;;;11.70;99.90;;;;;;4929437;29;20066;-71
2023/03/22 07:30:04;;;;;;;6.35;2.00;;;11.80;99.50;;;;;;4929848;29;20033;-70
2023/03/22 07:32:33;;;;;;;3.53;1.67;;;11.90;98.60;;;;;;4929611;29;20210;-70
2023/03/22 07:35:08;;;;;;;3.47;1.35;;;12.00;98.30;;;;;;4945804;29;20309;-71
2023/03/22 07:37:34;;;;;;;4.18;1.77;;;12.00;98.20;;;;;;4929375;29;20047;-72
2023/03/22 07:40:03;;;;;;;5.10;2.35;;;12.20;98.40;;;;;;4929762;29;20054;-74
2023/03/22 07:42:30;;;;;;;7.60;2.63;;;12.30;99.20;;;;;;4928867;29;20072;-71
2023/03/22 07:45:21;;;;;;;7.10;2.80;;;12.30;99.80;;;;;;4944692;29;20023;-71
2023/03/22 07:48:23;;;;;;;9.52;3.40;;;12.40;99.70;;;;;;4939099;29;20031;-71
2023/03/22 07:51:06;;;;;;;9.80;3.40;;;12.60;99.70;;;;;;4945634;29;20039;-72
2023/03/22 07:53:32;;;;;;;6.50;2.63;;;12.70;99.30;;;;;;4931293;29;20182;-71
2023/03/22 07:55:57;;;;;;;5.55;2.25;;;12.80;98.20;;;;;;4944868;29;20272;-71
2023/03/22 07:58:23;;;;;;;4.35;1.75;;;12.90;96.70;;;;;;4943577;29;20042;-71
2023/03/22 08:00:49;;;;;;;3.45;1.10;;;13.10;95.60;;;;;;4929592;29;20043;-71
2023/03/22 08:03:36;;;;;;;2.42;1.20;;;13.30;95.00;;;;;;4945757;29;20070;-72
2023/03/22 08:06:08;;;;;;;2.60;0.90;;;13.40;94.10;;;;;;4945303;29;20024;-73
2023/03/22 08:08:36;;;;;;;2.88;1.10;;;13.50;93.60;;;;;;4945824;29;20281;-70
2023/03/22 08:11:03;;;;;;;2.72;0.98;;;13.70;93.50;;;;;;4946105;29;20034;-73
2023/03/22 08:13:30;;;;;;;3.05;1.13;;;13.80;93.20;;;;;;4945556;29;20293;-71
2023/03/22 08:15:56;;;;;;;2.40;1.00;;;13.90;93.20;;;;;;4944899;29;20024;-71
2023/03/22 08:18:23;;;;;;;2.55;0.90;;;13.90;92.90;;;;;;4928262;29;20031;-73
2023/03/22 08:20:57;;;;;;;2.78;1.10;;;14.00;92.80;;;;;;4945954;29;20194;-72
2023/03/22 08:23:27;;;;;;;2.60;0.85;;;14.00;92.90;;;;;;4944438;29;20023;-72
2023/03/22 08:26:11;;;;;;;3.90;1.02;;;14.10;92.30;;;;;;4945630;29;20103;-73
2023/03/22 08:28:37;;;;;;;3.13;0.90;;;14.00;92.30;;;;;;4928211;29;20039;-73
2023/03/22 08:31:12;;;;;;;3.15;0.85;;;14.10;92.30;;;;;;4944679;29;20043;-71
2023/03/22 08:33:38;;;;;;;2.15;0.88;;;14.10;92.30;;;;;;4944157;29;20190;-69
2023/03/22 08:36:13;;;;;;;1.98;0.88;;;14.20;92.30;;;;;;4946186;29;20055;-71
2023/03/22 08:38:45;;;;;;;2.30;0.77;;;14.20;92.30;;;;;;4928259;29;20329;-72
2023/03/22 08:41:14;;;;;;;3.55;0.73;;;14.20;92.30;;;;;;4944436;29;20032;-72
2023/03/22 08:43:41;;;;;;;2.70;0.95;;;14.30;92.00;;;;;;4945279;29;20044;-72
2023/03/22 08:46:07;;;;;;;3.30;0.90;;;14.40;92.10;;;;;;4928663;29;20080;-72
2023/03/22 08:48:34;;;;;;;3.03;0.73;;;14.40;92.00;;;;;;4943851;29;20043;-71
2023/03/22 08:51:12;;;;;;;3.10;0.95;;;14.50;92.00;;;;;;4944130;29;20034;-73
2023/03/22 08:53:59;;;;;;;2.72;0.90;;;14.60;92.00;;;;;;4933837;29;20034;-72
2023/03/22 08:56:43;;;;;;;2.85;0.70;;;14.70;92.10;;;;;;4944774;29;20122;-72
2023/03/22 08:59:26;;;;;;;3.42;0.85;;;14.80;91.90;;;;;;4943734;29;20031;-72
2023/03/22 09:02:18;;;;;;;4.05;0.90;;;15.00;91.80;;;;;;4934279;29;20059;-72
2023/03/22 09:04:44;;;;;;;1.85;0.80;;;15.10;91.60;;;;;;4927970;29;20269;-72
2023/03/22 09:07:10;;;;;;;2.97;0.60;;;15.20;91.30;;;;;;4928351;29;20047;-73
2023/03/22 09:09:38;;;;;;;1.25;0.43;;;15.20;91.10;;;;;;4927453;29;20044;-71
2023/03/22 09:12:04;;;;;;;2.38;0.52;;;15.20;91.20;;;;;;4930352;29;20035;-71
2023/03/22 09:14:33;;;;;;;2.30;0.80;;;15.30;90.80;;;;;;4943875;29;20042;-73
2023/03/22 09:16:59;;;;;;;2.25;0.90;;;15.20;91.00;;;;;;4944355;29;20040;-73
2023/03/22 09:19:25;;;;;;;2.10;0.60;;;15.40;90.90;;;;;;4943487;29;20221;-72
2023/03/22 09:21:51;;;;;;;2.53;0.50;;;15.50;90.90;;;;;;4927912;29;20039;-72
2023/03/22 09:24:28;;;;;;;1.75;0.63;;;15.50;90.50;;;;;;4927642;29;20034;-72
2023/03/22 09:26:58;;;;;;;1.58;0.40;;;15.50;90.80;;;;;;4927845;29;20028;-72
2023/03/22 09:29:24;;;;;;;2.65;0.80;;;15.50;90.70;;;;;;4928180;29;20225;-72
2023/03/22 09:31:50;;;;;;;3.08;0.63;;;15.70;90.40;;;;;;4943822;29;20340;-71
2023/03/22 09:34:20;;;;;;;1.50;0.50;;;15.60;90.40;;;;;;4928049;29;20305;-73
2023/03/22 09:36:46;;;;;;;1.08;0.40;;;15.70;90.70;;;;;;4943458;29;20047;-73
2023/03/22 09:39:15;;;;;;;1.38;0.45;;;15.80;90.20;;;;;;4927987;29;20134;-71
2023/03/22 09:41:56;;;;;;;1.52;0.52;;;15.90;90.10;;;;;;4927506;29;20032;-72
2023/03/22 09:44:31;;;;;;;1.90;0.50;;;16.00;89.70;;;;;;4943631;29;20028;-73
2023/03/22 09:46:59;;;;;;;1.40;0.50;;;16.20;89.30;;;;;;4943690;29;20024;-72
2023/03/22 09:49:32;;;;;;;1.60;0.60;;;16.20;88.30;;;;;;4945000;29;20036;-72
2023/03/22 09:51:57;;;;;;;1.30;0.38;;;16.30;87.70;;;;;;4944838;29;20143;-72
2023/03/22 09:54:36;;;;;;;2.10;0.40;;;16.50;87.00;;;;;;4944654;29;20027;-72
2023/03/22 09:57:12;;;;;;;2.25;0.57;;;16.50;86.80;;;;;;4944451;29;20028;-71
2023/03/22 09:59:52;;;;;;;1.73;0.63;;;16.70;86.80;;;;;;4943881;29;20047;-72
2023/03/22 10:02:36;;;;;;;1.27;0.40;;;16.80;86.00;;;;;;4944575;29;20058;-73
2023/03/22 10:05:22;;;;;;;2.47;0.60;;;16.90;85.10;;;;;;4944768;29;20062;-72
2023/03/22 10:08:27;;;;;;;1.73;0.57;;;17.00;84.90;;;;;;4944314;29;20043;-74
2023/03/22 10:10:53;;;;;;;11.77;1.83;;;17.10;84.40;;;;;;4944520;29;20128;-74
2023/03/22 10:13:35;;;;;;;6.50;1.10;;;17.00;84.30;;;;;;4944580;29;20040;-73
2023/03/22 10:16:09;;;;;;;1.63;0.50;;;17.00;84.10;;;;;;4944557;29;20044;-73
2023/03/22 10:18:37;;;;;;;2.42;0.45;;;17.00;84.10;;;;;;4943577;29;20035;-73
2023/03/22 10:21:06;;;;;;;1.98;0.70;;;16.90;84.30;;;;;;4945134;29;20303;-73
2023/03/22 10:23:51;;;;;;;1.08;0.40;;;16.90;83.60;;;;;;4947754;29;20324;-72
2023/03/22 10:26:31;;;;;;;1.30;0.50;;;16.80;83.90;;;;;;4948140;29;20066;-72
2023/03/22 10:29:04;;;;;;;2.10;0.65;;;16.90;84.60;;;;;;4948056;29;20047;-72
2023/03/22 10:31:32;;;;;;;2.38;0.57;;;17.00;84.80;;;;;;4947777;29;20036;-72
2023/03/22 10:34:18;;;;;;;2.47;0.40;;;16.90;84.60;;;;;;4948733;29;20032;-73
2023/03/22 10:36:46;;;;;;;2.95;0.70;;;16.90;84.50;;;;;;4948093;29;20034;-72
2023/03/22 10:39:23;;;;;;;1.60;0.60;;;17.00;84.10;;;;;;4949281;29;20114;-73
2023/03/22 10:41:52;;;;;;;1.75;0.52;;;17.20;83.70;;;;;;4949113;29;20048;-73
2023/03/22 10:44:20;;;;;;;1.63;0.60;;;17.30;83.50;;;;;;4949994;29;20019;-73
2023/03/22 10:46:48;;;;;;;1.93;0.50;;;17.50;83.10;;;;;;4949148;29;20075;-74
2023/03/22 10:49:35;;;;;;;6.15;0.52;;;17.60;82.70;;;;;;4949108;29;20209;-72
2023/03/22 10:52:19;;;;;;;1.98;0.60;;;18.00;82.80;;;;;;4948078;29;20039;-74
2023/03/22 10:54:45;;;;;;;1.88;0.50;;;18.10;81.40;;;;;;4931103;29;20039;-74
2023/03/22 10:57:11;;;;;;;1.77;0.52;;;18.40;80.50;;;;;;4947977;29;20042;-73
2023/03/22 10:59:55;;;;;;;2.95;0.60;;;18.70;80.40;;;;;;4947259;29;20062;-73
2023/03/22 11:02:28;;;;;;;3.75;0.60;;;19.40;79.20;;;;;;4948054;29;20118;-72
2023/03/22 11:05:00;;;;;;;3.35;0.60;;;19.90;78.00;;;;;;4945928;29;20031;-73
2023/03/22 11:07:46;;;;;;;2.65;0.52;;;19.90;77.50;;;;;;4947534;29;20221;-73
2023/03/22 11:10:22;;;;;;;1.70;0.60;;;20.40;76.30;;;;;;4930399;29;20070;-72
2023/03/22 11:13:16;;;;;;;2.20;0.63;;;20.90;76.70;;;;;;4946630;29;20059;-72
2023/03/22 11:15:54;;;;;;;1.35;0.50;;;21.90;73.90;;;;;;4940920;29;20047;-72
2023/03/22 11:18:20;;;;;;;1.55;0.60;;;22.00;72.60;;;;;;4946955;29;20039;-73
2023/03/22 11:21:06;;;;;;;1.08;0.43;;;22.60;70.90;;;;;;4946611;29;20091;-73
2023/03/22 11:23:34;;;;;;;1.58;0.30;;;22.70;70.60;;;;;;4946590;29;20035;-73
2023/03/22 11:26:08;;;;;;;0.88;0.30;;;22.90;68.70;;;;;;4947386;29;20055;-71
2023/03/22 11:28:45;;;;;;;1.33;0.40;;;22.60;69.40;;;;;;4946545;29;20044;-75
2023/03/22 11:31:14;;;;;;;0.85;0.32;;;22.40;67.70;;;;;;4947300;29;20020;-72
2023/03/22 11:33:52;;;;;;;;;;;22.10;67.30;;;;;;4946000;29;20123;-73
2023/03/22 11:36:17;;;;;;;;;;;21.70;68.40;;;;;;4947814;29;19965;-73
2023/03/22 11:38:44;;;;;;;1.83;0.50;;;21.90;69.10;;;;;;4946532;29;19922;-73
2023/03/22 11:41:20;;;;;;;1.35;0.40;;;22.60;67.50;;;;;;4946926;29;20059;-71
2023/03/22 11:43:49;;;;;;;1.83;0.35;;;23.00;65.20;;;;;;4946823;29;20062;-73
2023/03/22 11:46:19;;;;;;;1.33;0.20;;;23.70;61.20;;;;;;4947280;29;20019;-72
2023/03/22 11:48:48;;;;;;;0.77;0.20;;;24.20;59.90;;;;;;4946502;29;20045;-71
2023/03/22 11:51:31;;;;;;;1.63;0.30;;;24.90;59.20;;;;;;4947071;29;20062;-74
2023/03/22 11:54:09;;;;;;;1.33;0.30;;;25.60;58.00;;;;;;4933792;29;20099;-73
2023/03/22 11:56:40;;;;;;;1.17;0.40;;;25.80;57.70;;;;;;4946211;29;20031;-73
2023/03/22 11:59:22;;;;;;;1.00;0.30;;;26.00;55.80;;;;;;4946971;29;20046;-72
2023/03/22 12:01:56;;;;;;;1.63;0.47;;;25.30;56.90;;;;;;4944802;29;20079;-70
2023/03/22 12:04:26;;;;;;;1.27;0.32;;;25.40;56.50;;;;;;4943784;29;20054;-73
2023/03/22 12:06:58;;;;;;;1.63;0.40;;;25.70;55.90;;;;;;4945848;29;20030;-71
2023/03/22 12:09:30;;;;;;;1.00;0.25;;;26.70;55.70;;;;;;4946137;29;20094;-74
2023/03/22 12:11:57;;;;;;;1.20;0.30;;;25.70;53.80;;;;;;4945690;29;20405;-73
2023/03/22 12:15:04;;;;;;;0.57;0.22;;;24.70;55.20;;;;;;4946282;29;20028;-70
2023/03/22 12:17:36;;;;;;;0.65;0.20;;;24.70;55.40;;;;;;4943503;29;20278;-73
2023/03/22 12:20:40;;;;;;;0.90;0.10;;;24.90;55.30;;;;;;4945836;29;20222;-72
2023/03/22 12:23:18;;;;;;;1.17;0.30;;;25.20;54.20;;;;;;4937804;29;20082;-71
2023/03/22 12:25:56;;;;;;;0.70;0.20;;;25.00;53.80;;;;;;4945253;29;20035;-73
2023/03/22 12:28:30;;;;;;;1.20;0.20;;;24.40;54.20;;;;;;4943670;29;20348;-75
2023/03/22 12:30:58;;;;;;;1.13;0.30;;;24.00;54.90;;;;;;4945431;29;20124;-73
2023/03/22 12:33:31;;;;;;;4.25;0.47;;;23.70;55.40;;;;;;4932480;29;20035;-72
2023/03/22 12:36:05;;;;;;;1.23;0.40;;;24.00;55.50;;;;;;4945155;29;20044;-72
2023/03/22 12:38:40;;;;;;;1.48;0.20;;;24.70;53.90;;;;;;4933288;29;20067;-72
2023/03/22 12:41:11;;;;;;;1.27;0.30;;;25.30;53.20;;;;;;4957619;29;20094;-71
2023/03/22 12:43:54;;;;;;;2.85;0.30;;;25.40;52.80;;;;;;4941449;29;20047;-73
2023/03/22 12:46:25;;;;;;;1.75;0.30;;;26.50;52.40;;;;;;4944546;29;20094;-71
2023/03/22 12:49:00;;;;;;;1.10;0.30;;;26.10;52.40;;;;;;4946050;29;20046;-71
2023/03/22 12:51:26;;;;;;;0.70;0.20;;;26.60;51.90;;;;;;4949457;29;20027;-72
2023/03/22 12:53:55;;;;;;;1.13;0.30;;;27.50;51.90;;;;;;4944551;29;20075;-72
2023/03/22 12:56:25;;;;;;;2.33;0.35;;;27.20;49.80;;;;;;4944114;29;20214;-72
2023/03/22 12:59:01;;;;;;;2.20;0.28;;;26.50;50.40;;;;;;4943863;29;20054;-72
2023/03/22 13:01:38;;;;;;;1.77;0.30;;;26.20;51.20;;;;;;4949169;29;20031;-73
2023/03/22 13:04:42;;;;;;;0.80;0.30;;;26.90;51.80;;;;;;4932834;29;20031;-73
2023/03/22 13:07:29;;;;;;;0.80;0.20;;;27.40;51.00;;;;;;4882542;29;20112;-72
2023/03/22 13:09:55;;;;;;;0.82;0.30;;;27.70;50.90;;;;;;4937498;29;20056;-73
2023/03/22 13:12:21;;;;;;;1.10;0.30;;;28.80;49.80;;;;;;4944334;29;20050;-72
2023/03/22 13:15:12;;;;;;;1.50;0.30;;;29.00;48.20;;;;;;4943157;29;20058;-73
2023/03/22 13:17:43;;;;;;;0.65;0.17;;;29.70;48.10;;;;;;4944335;29;20039;-73
2023/03/22 13:20:10;;;;;;;0.82;0.22;;;30.80;47.90;;;;;;4945148;29;20046;-74
2023/03/22 13:22:40;;;;;;;0.80;0.25;;;31.10;47.70;;;;;;4945199;29;20035;-74
2023/03/22 13:25:09;;;;;;;1.85;0.40;;;33.00;46.10;;;;;;4944662;29;20262;-72
2023/03/22 13:27:44;;;;;;;0.93;0.20;;;34.60;44.60;;;;;;4943869;29;20040;-74
2023/03/22 13:30:37;;;;;;;0.60;0.20;;;33.90;42.90;;;;;;4944922;29;20043;-75
2023/03/22 13:33:08;;;;;;;0.85;0.30;;;32.30;44.10;;;;;;4944180;29;20027;-73
2023/03/22 13:35:55;;;;;;;1.17;0.30;;;30.10;45.00;;;;;;4944937;29;20122;-74
2023/03/22 13:38:23;;;;;;;0.80;0.20;;;28.80;46.00;;;;;;4944478;29;20046;-75
2023/03/22 13:41:17;;;;;;;2.55;0.40;;;28.30;46.50;;;;;;4943391;29;20107;-78
2023/03/22 13:43:49;;;;;;;0.95;0.30;;;28.00;48.60;;;;;;4944133;29;20036;-75
2023/03/22 13:46:20;;;;;;;1.00;0.20;;;28.10;47.10;;;;;;4944763;29;20042;-74
2023/03/22 13:48:45;;;;;;;0.98;0.25;;;28.30;46.80;;;;;;4944496;29;20028;-72
2023/03/22 13:51:22;;;;;;;2.05;0.30;;;27.60;47.40;;;;;;4944941;29;20313;-74
2023/03/22 13:54:16;;;;;;;1.55;0.30;;;27.40;47.70;;;;;;4944090;29;20122;-73
2023/03/22 13:56:51;;;;;;;1.55;0.50;;;26.80;48.30;;;;;;4939935;29;20222;-72
2023/03/22 13:59:25;;;;;;;0.98;0.30;;;26.40;48.80;;;;;;4948718;29;20151;-73
2023/03/22 14:02:15;;;;;;;2.55;0.45;;;27.80;48.20;;;;;;4946599;29;20329;-72
2023/03/22 14:04:46;;;;;;;1.25;0.40;;;28.50;47.60;;;;;;4947995;29;20027;-74
2023/03/22 14:07:20;;;;;;;0.85;0.30;;;30.00;46.10;;;;;;4948465;29;20039;-74
2023/03/22 14:09:53;;;;;;;2.22;0.50;;;31.20;45.50;;;;;;4948195;29;20024;-75
2023/03/22 14:12:21;;;;;;;1.10;0.38;;;30.80;44.50;;;;;;4936430;29;20044;-72
2023/03/22 14:14:55;;;;;;;1.52;0.30;;;30.00;44.90;;;;;;4947504;29;20039;-76
2023/03/22 14:17:49;;;;;;;0.80;0.30;;;29.70;46.30;;;;;;4948281;29;20055;-73
2023/03/22 14:20:21;;;;;;;1.33;0.30;;;29.70;46.20;;;;;;4947937;29;20192;-72
2023/03/22 14:22:56;;;;;;;0.80;0.30;;;30.00;45.40;;;;;;4947881;29;20050;-73
2023/03/22 14:25:27;;;;;;;1.77;0.30;;;31.10;45.00;;;;;;4947969;29;20028;-74
2023/03/22 14:27:54;;;;;;;1.85;0.20;;;31.80;43.40;;;;;;4947816;29;20044;-72
2023/03/22 14:30:32;;;;;;;1.47;0.30;;;31.80;43.80;;;;;;4947758;29;20026;-74
2023/03/22 14:33:14;;;;;;;;;;;32.40;42.60;;;;;;4947679;29;20439;-74
2023/03/22 14:35:44;;;;;;;2.03;0.20;;;31.60;42.90;;;;;;4947879;29;19942;-74
2023/03/22 14:38:32;;;;;;;1.90;0.38;;;31.40;43.20;;;;;;4947762;29;20103;-73
2023/03/22 14:41:20;;;;;;;1.05;0.40;;;30.40;43.70;;;;;;4947665;29;20032;-73
2023/03/22 14:43:47;;;;;;;2.17;0.30;;;30.90;44.30;;;;;;4934272;29;20036;-73
2023/03/22 14:46:18;;;;;;;1.50;0.35;;;31.50;44.10;;;;;;4947861;29;20032;-74
2023/03/22 14:48:53;;;;;;;2.22;0.55;;;31.50;43.60;;;;;;4947393;29;20050;-75
2023/03/22 14:51:32;;;;;;;0.52;0.20;;;31.10;44.20;;;;;;4947492;29;20044;-74
2023/03/22 14:53:58;;;;;;;0.98;0.22;;;30.60;44.10;;;;;;4946850;29;20031;-73
2023/03/22 14:56:48;;;;;;;2.03;0.52;;;29.50;44.50;;;;;;4947173;29;20214;-73
2023/03/22 14:59:17;;;;;;;1.73;0.30;;;29.10;45.10;;;;;;4942147;29;20051;-75
2023/03/22 15:01:52;;;;;;;1.10;0.30;;;29.60;44.90;;;;;;4946770;29;20078;-73
2023/03/22 15:04:19;;;;;;;1.10;0.30;;;29.70;44.60;;;;;;4947314;29;20043;-74
2023/03/22 15:07:01;;;;;;;1.13;0.30;;;30.20;44.20;;;;;;4946657;29;20051;-74
2023/03/22 15:09:27;;;;;;;1.48;0.30;;;31.10;43.80;;;;;;4947313;29;20815;-75
2023/03/22 15:11:59;;;;;;;0.93;0.30;;;31.60;43.60;;;;;;4946728;29;20102;-74
2023/03/22 15:14:26;;;;;;;1.15;0.40;;;32.20;44.60;;;;;;4947457;29;20046;-76
2023/03/22 15:16:52;;;;;;;1.23;0.30;;;32.30;43.30;;;;;;4946743;29;20035;-73
2023/03/22 15:19:21;;;;;;;0.98;0.30;;;32.70;43.50;;;;;;4946807;29;20230;-74
2023/03/22 15:22:02;;;;;;;1.05;0.40;;;32.20;43.50;;;;;;4929493;29;20058;-73
2023/03/22 15:24:36;;;;;;;1.02;0.30;;;31.80;44.20;;;;;;4946932;29;20270;-72
2023/03/22 15:27:12;;;;;;;1.65;0.30;;;32.30;43.80;;;;;;4946365;29;20036;-72
2023/03/22 15:29:42;;;;;;;1.73;0.25;;;31.60;44.10;;;;;;4946867;29;20107;-73
2023/03/22 15:32:22;;;;;;;0.85;0.30;;;31.40;44.20;;;;;;4946115;29;20309;-76
2023/03/22 15:34:51;;;;;;;0.90;0.30;;;30.90;44.60;;;;;;4945870;29;20079;-73
2023/03/22 15:37:30;;;;;;;0.73;0.30;;;30.80;44.80;;;;;;4947003;29;20028;-72
2023/03/22 15:39:57;;;;;;;1.20;0.30;;;30.80;46.10;;;;;;4946233;29;20044;-71
2023/03/22 15:42:38;;;;;;;1.65;0.40;;;32.40;45.40;;;;;;4946525;29;20305;-73
2023/03/22 15:45:13;;;;;;;1.40;0.30;;;32.70;44.40;;;;;;4946054;29;20055;-74
2023/03/22 15:48:18;;;;;;;1.98;0.50;;;33.20;43.60;;;;;;4946827;29;20070;-72
2023/03/22 15:50:49;;;;;;;2.45;0.52;;;32.10;43.90;;;;;;4945148;29;20095;-72
2023/03/22 15:53:30;;;;;;;1.83;0.60;;;31.50;44.60;;;;;;4946272;29;20031;-72
2023/03/22 15:55:56;;;;;;;1.30;0.40;;;30.20;45.20;;;;;;4945628;29;20039;-72
2023/03/22 15:58:31;;;;;;;1.65;0.60;;;28.50;46.40;;;;;;4946470;29;20061;-72
2023/03/22 16:01:27;;;;;;;1.10;0.45;;;27.80;47.60;;;;;;4945742;29;20036;-73
2023/03/22 16:04:15;;;;;;;1.50;0.50;;;27.30;47.80;;;;;;4933493;29;20333;-72
2023/03/22 16:06:41;;;;;;;0.95;0.40;;;26.40;47.90;;;;;;4945833;29;20035;-72
2023/03/22 16:09:06;;;;;;;2.35;0.50;;;25.60;48.90;;;;;;4945559;29;20279;-74
2023/03/22 16:11:32;;;;;;;1.88;0.40;;;25.00;50.50;;;;;;4946078;29;20078;-74
2023/03/22 16:14:01;;;;;;;2.63;0.70;;;25.00;50.10;;;;;;4945975;29;20229;-73
2023/03/22 16:16:27;;;;;;;2.65;0.68;;;24.90;50.40;;;;;;4946422;29;20099;-73
2023/03/22 16:21:48;;;;;;;2.22;0.60;;;23.90;51.90;;;;;;4887413;29;20084;-71
2023/03/22 16:24:14;;;;;;;1.75;0.60;;;23.10;52.90;;;;;;4938903;29;20073;-72
2023/03/22 16:26:40;;;;;;;1.77;0.63;;;22.50;53.20;;;;;;4957654;29;20194;-73
2023/03/22 16:29:06;;;;;;;3.20;0.68;;;22.10;54.00;;;;;;4926628;29;20050;-74
2023/03/22 16:31:32;;;;;;;1.38;0.50;;;21.90;54.70;;;;;;4926888;29;20207;-73
2023/03/22 16:33:58;;;;;;;1.48;0.57;;;21.60;55.00;;;;;;4926062;29;20246;-71
2023/03/22 16:36:24;;;;;;;1.60;0.60;;;21.30;55.40;;;;;;4926825;29;20036;-73
2023/03/22 16:38:51;;;;;;;2.35;0.55;;;21.20;55.50;;;;;;4926190;29;20344;-73
2023/03/22 16:41:26;;;;;;;2.35;0.55;;;20.90;55.90;;;;;;4927077;29;20190;-71
2023/03/22 16:43:54;;;;;;;1.42;0.63;;;20.80;56.60;;;;;;4932723;29;20035;-71
2023/03/22 16:46:20;;;;;;;1.35;0.60;;;20.40;56.80;;;;;;4945269;29;20195;-73
2023/03/22 16:48:46;;;;;;;2.00;0.70;;;20.30;57.60;;;;;;4945335;29;20260;-72
2023/03/22 16:51:21;;;;;;;2.72;0.68;;;20.10;58.10;;;;;;4945262;29;20055;-73
2023/03/22 16:53:47;;;;;;;2.55;0.47;;;19.90;58.40;;;;;;4945703;29;20031;-72
2023/03/22 16:56:17;;;;;;;1.65;0.77;;;19.70;58.80;;;;;;4945240;29;20043;-75
2023/03/22 16:58:44;;;;;;;2.15;0.60;;;19.70;59.20;;;;;;4944282;29;20263;-74
2023/03/22 17:01:15;;;;;;;2.92;0.60;;;19.60;59.90;;;;;;4943663;29;20221;-73
2023/03/22 17:03:42;;;;;;;2.08;0.85;;;19.60;60.10;;;;;;4945665;29;20259;-74
2023/03/22 17:06:12;;;;;;;4.82;0.80;;;19.60;60.00;;;;;;4927509;29;20038;-73
2023/03/22 17:08:38;;;;;;;2.13;0.80;;;19.40;60.30;;;;;;4944052;29;20038;-74
2023/03/22 17:11:04;;;;;;;1.83;0.80;;;19.30;60.80;;;;;;4944939;29;20031;-73
2023/03/22 17:13:29;;;;;;;2.35;0.77;;;19.30;61.40;;;;;;4945089;29;20035;-73
2023/03/22 17:15:55;;;;;;;2.85;0.77;;;19.20;61.80;;;;;;4944638;29;20305;-74
2023/03/22 17:18:21;;;;;;;3.50;1.00;;;19.10;61.60;;;;;;4944586;29;20242;-72
2023/03/22 17:20:47;;;;;;;3.33;0.85;;;19.10;62.30;;;;;;4945154;29;20031;-74
2023/03/22 17:23:13;;;;;;;2.42;0.93;;;19.00;62.40;;;;;;4944376;29;20221;-73
2023/03/22 17:25:42;;;;;;;2.55;1.10;;;18.90;62.80;;;;;;4945344;29;20031;-74
2023/03/22 17:28:10;;;;;;;3.15;0.90;;;18.80;63.20;;;;;;4944594;29;20039;-73
2023/03/22 17:30:37;;;;;;;2.63;1.00;;;18.60;63.60;;;;;;4945128;29;20035;-73
2023/03/22 17:33:05;;;;;;;2.90;0.77;;;18.40;64.10;;;;;;4945058;29;20389;-76
2023/03/22 17:35:33;;;;;;;2.60;1.08;;;18.30;64.40;;;;;;4945205;29;20109;-72
2023/03/22 17:38:00;;;;;;;2.53;1.45;;;18.00;65.20;;;;;;4944601;29;20043;-74
2023/03/22 17:40:30;;;;;;;3.28;1.27;;;17.90;65.80;;;;;;4944751;29;20051;-74
2023/03/22 17:42:57;;;;;;;4.72;1.40;;;17.80;65.80;;;;;;4944059;29;20425;-73
2023/03/22 17:45:30;;;;;;;2.97;1.30;;;17.70;66.40;;;;;;4944395;29;20047;-74
2023/03/22 17:47:56;;;;;;;4.07;1.27;;;17.60;67.20;;;;;;4944683;29;20193;-76
2023/03/22 17:50:24;;;;;;;4.97;1.60;;;17.50;67.40;;;;;;4944434;29;20074;-75
2023/03/22 17:52:50;;;;;;;;;;;17.30;67.60;;;;;;4945333;29;20042;-73
2023/03/22 17:55:21;;;;;;;3.20;0.70;;;17.20;67.90;;;;;;4944380;29;19969;-74
2023/03/22 17:57:47;;;;;;;3.85;1.10;;;17.10;67.80;;;;;;4944504;29;20308;-75
2023/03/22 18:00:14;;;;;;;3.42;0.95;;;17.00;68.20;;;;;;4944299;29;20090;-74
2023/03/22 18:02:41;;;;;;;3.33;0.90;;;17.00;68.60;;;;;;4944527;29;20051;-73
2023/03/22 18:05:07;;;;;;;2.42;0.98;;;16.80;68.70;;;;;;4943131;29;20107;-74
2023/03/22 18:07:32;;;;;;;3.45;1.15;;;16.80;69.50;;;;;;4944271;29;20095;-73
2023/03/22 18:09:58;;;;;;;2.83;1.10;;;16.70;69.30;;;;;;4943910;29;20340;-73
2023/03/22 18:12:24;;;;;;;3.33;1.20;;;16.60;69.80;;;;;;4944375;29;20051;-74
2023/03/22 18:14:50;;;;;;;3.72;1.05;;;16.60;70.40;;;;;;4944217;29;20040;-73
2023/03/22 18:17:15;;;;;;;4.45;1.60;;;16.50;70.50;;;;;;4944097;29;20024;-73
2023/03/22 18:19:41;;;;;;;4.75;1.42;;;16.50;70.40;;;;;;4927218;29;20039;-74